sensor_id;sensor_type;location;lat;lon;timestamp;P1;durP1;ratioP1;P2;durP2;ratioP2
18997;SDS011;9632;51.018;4.284;2024-01-11T00:00:13;47.00;;;16.80;;
18997;SDS011;9632;51.018;4.284;2024-01-11T00:02:39;39.27;;;15.67;;
18997;SDS011;9632;51.018;4.284;2024-01-11T00:05:05;41.60;;;15.87;;
18997;SDS011;9632;51.018;4.284;2024-01-11T00:07:31;43.87;;;16.10;;
18997;SDS011;9632;51.018;4.284;2024-01-11T00:09:57;45.27;;;16.13;;
18997;SDS011;9632;51.018;4.284;2024-01-11T00:12:23;45.47;;;16.40;;
18997;SDS011;9632;51.018;4.284;2024-01-11T00:14:48;38.00;;;15.60;;
18997;SDS011;9632;51.018;4.284;2024-01-11T00:17:14;40.00;;;15.60;;
18997;SDS011;9632;51.018;4.284;2024-01-11T00:19:40;40.67;;;15.00;;
18997;SDS011;9632;51.018;4.284;2024-01-11T00:22:06;44.00;;;16.93;;
18997;SDS011;9632;51.018;4.284;2024-01-11T00:24:32;40.13;;;16.03;;
18997;SDS011;9632;51.018;4.284;2024-01-11T00:26:57;46.60;;;17.10;;
18997;SDS011;9632;51.018;4.284;2024-01-11T00:29:23;41.27;;;16.30;;
18997;SDS011;9632;51.018;4.284;2024-01-11T00:31:49;45.27;;;16.43;;
18997;SDS011;9632;51.018;4.284;2024-01-11T00:34:14;50.10;;;16.83;;
18997;SDS011;9632;51.018;4.284;2024-01-11T00:36:40;44.73;;;16.77;;
18997;SDS011;9632;51.018;4.284;2024-01-11T00:39:05;45.87;;;16.53;;
18997;SDS011;9632;51.018;4.284;2024-01-11T00:41:31;42.33;;;15.77;;
18997;SDS011;9632;51.018;4.284;2024-01-11T00:43:57;46.70;;;16.47;;
18997;SDS011;9632;51.018;4.284;2024-01-11T00:46:23;39.37;;;15.40;;
18997;SDS011;9632;51.018;4.284;2024-01-11T00:48:48;43.20;;;15.23;;
18997;SDS011;9632;51.018;4.284;2024-01-11T00:51:15;41.60;;;15.30;;
18997;SDS011;9632;51.018;4.284;2024-01-11T00:53:40;43.63;;;16.13;;
18997;SDS011;9632;51.018;4.284;2024-01-11T00:56:14;35.37;;;14.37;;
18997;SDS011;9632;51.018;4.284;2024-01-11T00:58:44;42.53;;;15.53;;
18997;SDS011;9632;51.018;4.284;2024-01-11T01:01:10;38.93;;;15.10;;
18997;SDS011;9632;51.018;4.284;2024-01-11T01:03:36;41.37;;;15.63;;
18997;SDS011;9632;51.018;4.284;2024-01-11T01:06:02;42.00;;;15.80;;
18997;SDS011;9632;51.018;4.284;2024-01-11T01:08:28;36.40;;;13.90;;
18997;SDS011;9632;51.018;4.284;2024-01-11T01:10:54;37.07;;;15.17;;
18997;SDS011;9632;51.018;4.284;2024-01-11T01:13:20;37.83;;;14.37;;
18997;SDS011;9632;51.018;4.284;2024-01-11T01:15:46;39.17;;;15.20;;
18997;SDS011;9632;51.018;4.284;2024-01-11T01:18:12;35.17;;;14.40;;
18997;SDS011;9632;51.018;4.284;2024-01-11T01:20:37;39.60;;;15.07;;
18997;SDS011;9632;51.018;4.284;2024-01-11T01:23:03;42.77;;;16.07;;
18997;SDS011;9632;51.018;4.284;2024-01-11T01:25:29;36.97;;;14.73;;
18997;SDS011;9632;51.018;4.284;2024-01-11T01:27:55;37.30;;;14.43;;
18997;SDS011;9632;51.018;4.284;2024-01-11T01:30:21;40.13;;;15.13;;
18997;SDS011;9632;51.018;4.284;2024-01-11T01:32:47;39.50;;;14.87;;
18997;SDS011;9632;51.018;4.284;2024-01-11T01:35:12;39.03;;;14.83;;
18997;SDS011;9632;51.018;4.284;2024-01-11T01:37:38;38.43;;;14.13;;
18997;SDS011;9632;51.018;4.284;2024-01-11T01:40:04;35.13;;;13.70;;
18997;SDS011;9632;51.018;4.284;2024-01-11T01:42:30;34.57;;;13.63;;
18997;SDS011;9632;51.018;4.284;2024-01-11T01:44:56;38.07;;;14.40;;
18997;SDS011;9632;51.018;4.284;2024-01-11T01:47:21;38.33;;;13.97;;
18997;SDS011;9632;51.018;4.284;2024-01-11T01:49:47;36.07;;;14.20;;
18997;SDS011;9632;51.018;4.284;2024-01-11T01:52:14;37.47;;;14.07;;
18997;SDS011;9632;51.018;4.284;2024-01-11T01:54:41;36.60;;;13.70;;
18997;SDS011;9632;51.018;4.284;2024-01-11T01:57:07;35.70;;;13.57;;
18997;SDS011;9632;51.018;4.284;2024-01-11T01:59:34;37.67;;;13.70;;
18997;SDS011;9632;51.018;4.284;2024-01-11T02:02:02;34.90;;;13.60;;
18997;SDS011;9632;51.018;4.284;2024-01-11T02:04:29;37.00;;;14.30;;
18997;SDS011;9632;51.018;4.284;2024-01-11T02:06:55;41.73;;;13.77;;
18997;SDS011;9632;51.018;4.284;2024-01-11T02:09:22;35.70;;;13.90;;
18997;SDS011;9632;51.018;4.284;2024-01-11T02:11:48;35.87;;;13.87;;
18997;SDS011;9632;51.018;4.284;2024-01-11T02:14:19;38.27;;;14.30;;
18997;SDS011;9632;51.018;4.284;2024-01-11T02:16:45;36.53;;;13.47;;
18997;SDS011;9632;51.018;4.284;2024-01-11T02:19:14;32.27;;;13.73;;
18997;SDS011;9632;51.018;4.284;2024-01-11T02:21:43;36.13;;;14.10;;
18997;SDS011;9632;51.018;4.284;2024-01-11T02:24:11;34.53;;;13.60;;
18997;SDS011;9632;51.018;4.284;2024-01-11T02:26:44;34.47;;;14.23;;
18997;SDS011;9632;51.018;4.284;2024-01-11T02:29:26;38.20;;;13.97;;
18997;SDS011;9632;51.018;4.284;2024-01-11T02:31:53;35.97;;;13.97;;
18997;SDS011;9632;51.018;4.284;2024-01-11T02:34:19;35.70;;;14.23;;
18997;SDS011;9632;51.018;4.284;2024-01-11T02:36:45;36.73;;;14.00;;
18997;SDS011;9632;51.018;4.284;2024-01-11T02:39:11;33.33;;;13.73;;
18997;SDS011;9632;51.018;4.284;2024-01-11T02:41:40;37.07;;;14.40;;
18997;SDS011;9632;51.018;4.284;2024-01-11T02:44:07;37.20;;;14.10;;
18997;SDS011;9632;51.018;4.284;2024-01-11T02:46:32;39.73;;;13.83;;
18997;SDS011;9632;51.018;4.284;2024-01-11T02:48:58;35.47;;;14.20;;
18997;SDS011;9632;51.018;4.284;2024-01-11T02:51:24;38.10;;;14.40;;
18997;SDS011;9632;51.018;4.284;2024-01-11T02:53:49;41.20;;;15.27;;
18997;SDS011;9632;51.018;4.284;2024-01-11T02:56:15;36.80;;;14.50;;
18997;SDS011;9632;51.018;4.284;2024-01-11T02:58:40;35.57;;;14.73;;
18997;SDS011;9632;51.018;4.284;2024-01-11T03:01:06;37.90;;;14.33;;
18997;SDS011;9632;51.018;4.284;2024-01-11T03:03:32;37.20;;;15.50;;
18997;SDS011;9632;51.018;4.284;2024-01-11T03:05:57;33.37;;;14.03;;
18997;SDS011;9632;51.018;4.284;2024-01-11T03:08:23;33.17;;;13.60;;
18997;SDS011;9632;51.018;4.284;2024-01-11T03:10:49;38.43;;;14.47;;
18997;SDS011;9632;51.018;4.284;2024-01-11T03:13:14;39.00;;;15.47;;
18997;SDS011;9632;51.018;4.284;2024-01-11T03:15:40;43.23;;;14.33;;
18997;SDS011;9632;51.018;4.284;2024-01-11T03:18:06;36.97;;;14.20;;
18997;SDS011;9632;51.018;4.284;2024-01-11T03:20:31;42.30;;;15.03;;
18997;SDS011;9632;51.018;4.284;2024-01-11T03:22:57;39.67;;;15.30;;
18997;SDS011;9632;51.018;4.284;2024-01-11T03:25:22;35.17;;;14.87;;
18997;SDS011;9632;51.018;4.284;2024-01-11T03:27:48;35.90;;;14.50;;
18997;SDS011;9632;51.018;4.284;2024-01-11T03:30:14;40.07;;;14.43;;
18997;SDS011;9632;51.018;4.284;2024-01-11T03:32:41;38.27;;;14.90;;
18997;SDS011;9632;51.018;4.284;2024-01-11T03:35:07;38.50;;;14.87;;
18997;SDS011;9632;51.018;4.284;2024-01-11T03:37:33;39.93;;;15.63;;
18997;SDS011;9632;51.018;4.284;2024-01-11T03:40:00;39.63;;;15.77;;
18997;SDS011;9632;51.018;4.284;2024-01-11T03:42:26;37.77;;;14.33;;
18997;SDS011;9632;51.018;4.284;2024-01-11T03:44:51;39.57;;;15.50;;
18997;SDS011;9632;51.018;4.284;2024-01-11T03:47:17;39.07;;;14.80;;
18997;SDS011;9632;51.018;4.284;2024-01-11T03:49:43;34.77;;;13.90;;
18997;SDS011;9632;51.018;4.284;2024-01-11T03:52:09;39.47;;;14.50;;
18997;SDS011;9632;51.018;4.284;2024-01-11T03:54:35;39.33;;;15.70;;
18997;SDS011;9632;51.018;4.284;2024-01-11T03:57:01;40.87;;;15.73;;
18997;SDS011;9632;51.018;4.284;2024-01-11T03:59:26;34.30;;;13.87;;
18997;SDS011;9632;51.018;4.284;2024-01-11T04:01:52;36.83;;;15.37;;
18997;SDS011;9632;51.018;4.284;2024-01-11T04:04:18;36.93;;;14.27;;
18997;SDS011;9632;51.018;4.284;2024-01-11T04:06:44;42.87;;;14.90;;
18997;SDS011;9632;51.018;4.284;2024-01-11T04:09:10;35.93;;;14.40;;
18997;SDS011;9632;51.018;4.284;2024-01-11T04:11:36;34.83;;;14.23;;
18997;SDS011;9632;51.018;4.284;2024-01-11T04:14:02;39.43;;;15.40;;
18997;SDS011;9632;51.018;4.284;2024-01-11T04:16:27;35.87;;;14.33;;
18997;SDS011;9632;51.018;4.284;2024-01-11T04:18:53;39.37;;;15.33;;
18997;SDS011;9632;51.018;4.284;2024-01-11T04:21:25;39.17;;;15.17;;
18997;SDS011;9632;51.018;4.284;2024-01-11T04:23:55;37.27;;;14.30;;
18997;SDS011;9632;51.018;4.284;2024-01-11T04:26:21;38.93;;;15.73;;
18997;SDS011;9632;51.018;4.284;2024-01-11T04:28:46;41.37;;;16.20;;
18997;SDS011;9632;51.018;4.284;2024-01-11T04:31:13;39.27;;;14.90;;
18997;SDS011;9632;51.018;4.284;2024-01-11T04:33:43;40.30;;;14.83;;
18997;SDS011;9632;51.018;4.284;2024-01-11T04:36:09;38.57;;;14.73;;
18997;SDS011;9632;51.018;4.284;2024-01-11T04:38:35;38.20;;;14.80;;
18997;SDS011;9632;51.018;4.284;2024-01-11T04:41:10;36.23;;;15.13;;
18997;SDS011;9632;51.018;4.284;2024-01-11T04:43:37;38.67;;;15.67;;
18997;SDS011;9632;51.018;4.284;2024-01-11T04:46:14;39.40;;;14.77;;
18997;SDS011;9632;51.018;4.284;2024-01-11T04:48:40;42.17;;;15.97;;
18997;SDS011;9632;51.018;4.284;2024-01-11T04:51:05;41.80;;;15.43;;
18997;SDS011;9632;51.018;4.284;2024-01-11T04:53:31;41.80;;;15.77;;
18997;SDS011;9632;51.018;4.284;2024-01-11T04:55:57;44.33;;;16.80;;
18997;SDS011;9632;51.018;4.284;2024-01-11T04:58:22;41.43;;;15.73;;
18997;SDS011;9632;51.018;4.284;2024-01-11T05:00:48;37.17;;;14.97;;
18997;SDS011;9632;51.018;4.284;2024-01-11T05:03:14;39.90;;;15.93;;
18997;SDS011;9632;51.018;4.284;2024-01-11T05:05:40;41.37;;;15.83;;
18997;SDS011;9632;51.018;4.284;2024-01-11T05:08:06;40.00;;;15.33;;
18997;SDS011;9632;51.018;4.284;2024-01-11T05:10:31;40.50;;;16.43;;
18997;SDS011;9632;51.018;4.284;2024-01-11T05:12:57;45.07;;;16.33;;
18997;SDS011;9632;51.018;4.284;2024-01-11T05:15:23;42.97;;;16.83;;
18997;SDS011;9632;51.018;4.284;2024-01-11T05:17:48;43.33;;;16.33;;
18997;SDS011;9632;51.018;4.284;2024-01-11T05:20:14;42.07;;;15.40;;
18997;SDS011;9632;51.018;4.284;2024-01-11T05:22:40;46.13;;;17.43;;
18997;SDS011;9632;51.018;4.284;2024-01-11T05:25:05;37.93;;;14.83;;
18997;SDS011;9632;51.018;4.284;2024-01-11T05:27:31;39.20;;;15.80;;
18997;SDS011;9632;51.018;4.284;2024-01-11T05:29:57;40.20;;;15.20;;
18997;SDS011;9632;51.018;4.284;2024-01-11T05:32:22;44.50;;;16.40;;
18997;SDS011;9632;51.018;4.284;2024-01-11T05:34:48;44.23;;;16.97;;
18997;SDS011;9632;51.018;4.284;2024-01-11T05:37:14;42.00;;;16.23;;
18997;SDS011;9632;51.018;4.284;2024-01-11T05:39:39;44.60;;;17.07;;
18997;SDS011;9632;51.018;4.284;2024-01-11T05:42:05;45.53;;;16.70;;
18997;SDS011;9632;51.018;4.284;2024-01-11T05:44:31;39.53;;;16.57;;
18997;SDS011;9632;51.018;4.284;2024-01-11T05:46:57;40.13;;;15.17;;
18997;SDS011;9632;51.018;4.284;2024-01-11T05:49:23;42.17;;;16.20;;
18997;SDS011;9632;51.018;4.284;2024-01-11T05:51:48;45.87;;;17.17;;
18997;SDS011;9632;51.018;4.284;2024-01-11T05:54:14;43.37;;;16.60;;
18997;SDS011;9632;51.018;4.284;2024-01-11T05:56:39;41.07;;;16.03;;
18997;SDS011;9632;51.018;4.284;2024-01-11T05:59:05;47.00;;;17.10;;
18997;SDS011;9632;51.018;4.284;2024-01-11T06:01:31;43.50;;;16.10;;
18997;SDS011;9632;51.018;4.284;2024-01-11T06:03:57;47.43;;;17.20;;
18997;SDS011;9632;51.018;4.284;2024-01-11T06:06:22;42.83;;;16.00;;
18997;SDS011;9632;51.018;4.284;2024-01-11T06:08:48;47.77;;;16.90;;
18997;SDS011;9632;51.018;4.284;2024-01-11T06:11:13;43.47;;;16.60;;
18997;SDS011;9632;51.018;4.284;2024-01-11T06:13:40;43.20;;;16.63;;
18997;SDS011;9632;51.018;4.284;2024-01-11T06:16:06;45.30;;;17.13;;
18997;SDS011;9632;51.018;4.284;2024-01-11T06:18:32;43.40;;;15.73;;
18997;SDS011;9632;51.018;4.284;2024-01-11T06:20:58;46.20;;;16.17;;
18997;SDS011;9632;51.018;4.284;2024-01-11T06:23:24;47.43;;;17.37;;
18997;SDS011;9632;51.018;4.284;2024-01-11T06:25:50;40.50;;;15.83;;
18997;SDS011;9632;51.018;4.284;2024-01-11T06:28:16;41.87;;;16.30;;
18997;SDS011;9632;51.018;4.284;2024-01-11T06:30:41;42.17;;;16.27;;
18997;SDS011;9632;51.018;4.284;2024-01-11T06:33:08;45.30;;;17.13;;
18997;SDS011;9632;51.018;4.284;2024-01-11T06:35:34;49.60;;;18.00;;
18997;SDS011;9632;51.018;4.284;2024-01-11T06:37:59;43.73;;;16.47;;
18997;SDS011;9632;51.018;4.284;2024-01-11T06:40:25;43.37;;;16.47;;
18997;SDS011;9632;51.018;4.284;2024-01-11T06:42:51;46.90;;;17.23;;
18997;SDS011;9632;51.018;4.284;2024-01-11T06:45:17;45.93;;;17.17;;
18997;SDS011;9632;51.018;4.284;2024-01-11T06:47:43;52.77;;;18.53;;
18997;SDS011;9632;51.018;4.284;2024-01-11T06:50:12;47.77;;;17.50;;
18997;SDS011;9632;51.018;4.284;2024-01-11T06:52:38;47.53;;;17.70;;
18997;SDS011;9632;51.018;4.284;2024-01-11T06:55:04;45.13;;;16.67;;
18997;SDS011;9632;51.018;4.284;2024-01-11T06:57:30;42.83;;;17.17;;
18997;SDS011;9632;51.018;4.284;2024-01-11T06:59:56;53.70;;;18.67;;
18997;SDS011;9632;51.018;4.284;2024-01-11T07:02:21;49.57;;;18.30;;
18997;SDS011;9632;51.018;4.284;2024-01-11T07:04:47;56.93;;;19.80;;
18997;SDS011;9632;51.018;4.284;2024-01-11T07:07:13;43.20;;;16.50;;
18997;SDS011;9632;51.018;4.284;2024-01-11T07:09:39;45.70;;;17.53;;
18997;SDS011;9632;51.018;4.284;2024-01-11T07:12:05;46.20;;;18.20;;
18997;SDS011;9632;51.018;4.284;2024-01-11T07:14:31;44.33;;;17.57;;
18997;SDS011;9632;51.018;4.284;2024-01-11T07:16:57;46.50;;;17.60;;
18997;SDS011;9632;51.018;4.284;2024-01-11T07:19:23;49.07;;;17.10;;
18997;SDS011;9632;51.018;4.284;2024-01-11T07:21:48;48.50;;;18.07;;
18997;SDS011;9632;51.018;4.284;2024-01-11T07:24:14;44.13;;;17.30;;
18997;SDS011;9632;51.018;4.284;2024-01-11T07:26:40;57.23;;;18.90;;
18997;SDS011;9632;51.018;4.284;2024-01-11T07:29:06;51.60;;;17.73;;
18997;SDS011;9632;51.018;4.284;2024-01-11T07:31:32;47.87;;;17.57;;
18997;SDS011;9632;51.018;4.284;2024-01-11T07:33:57;46.40;;;17.67;;
18997;SDS011;9632;51.018;4.284;2024-01-11T07:36:24;46.97;;;17.53;;
18997;SDS011;9632;51.018;4.284;2024-01-11T07:38:50;49.07;;;18.20;;
18997;SDS011;9632;51.018;4.284;2024-01-11T07:41:15;47.53;;;16.90;;
18997;SDS011;9632;51.018;4.284;2024-01-11T07:43:41;45.63;;;17.23;;
18997;SDS011;9632;51.018;4.284;2024-01-11T07:46:07;49.43;;;18.13;;
18997;SDS011;9632;51.018;4.284;2024-01-11T07:48:32;42.77;;;17.13;;
18997;SDS011;9632;51.018;4.284;2024-01-11T07:50:59;45.10;;;17.47;;
18997;SDS011;9632;51.018;4.284;2024-01-11T07:53:25;45.13;;;17.00;;
18997;SDS011;9632;51.018;4.284;2024-01-11T07:55:53;40.67;;;16.97;;
18997;SDS011;9632;51.018;4.284;2024-01-11T07:58:19;42.70;;;16.30;;
18997;SDS011;9632;51.018;4.284;2024-01-11T08:00:46;49.60;;;16.63;;
18997;SDS011;9632;51.018;4.284;2024-01-11T08:03:13;47.17;;;17.10;;
18997;SDS011;9632;51.018;4.284;2024-01-11T08:05:39;42.17;;;16.93;;
18997;SDS011;9632;51.018;4.284;2024-01-11T08:08:04;41.97;;;15.53;;
18997;SDS011;9632;51.018;4.284;2024-01-11T08:10:30;48.27;;;16.37;;
18997;SDS011;9632;51.018;4.284;2024-01-11T08:12:56;49.03;;;17.73;;
18997;SDS011;9632;51.018;4.284;2024-01-11T08:15:22;45.77;;;17.03;;
18997;SDS011;9632;51.018;4.284;2024-01-11T08:17:47;46.57;;;17.63;;
18997;SDS011;9632;51.018;4.284;2024-01-11T08:20:13;46.20;;;16.73;;
18997;SDS011;9632;51.018;4.284;2024-01-11T08:22:40;44.73;;;16.13;;
18997;SDS011;9632;51.018;4.284;2024-01-11T08:25:08;41.73;;;16.17;;
18997;SDS011;9632;51.018;4.284;2024-01-11T08:27:34;42.57;;;16.37;;
18997;SDS011;9632;51.018;4.284;2024-01-11T08:29:59;45.57;;;17.30;;
18997;SDS011;9632;51.018;4.284;2024-01-11T08:32:25;51.07;;;17.27;;
18997;SDS011;9632;51.018;4.284;2024-01-11T08:34:51;46.33;;;17.87;;
18997;SDS011;9632;51.018;4.284;2024-01-11T08:37:17;42.43;;;17.07;;
18997;SDS011;9632;51.018;4.284;2024-01-11T08:39:43;49.97;;;18.37;;
18997;SDS011;9632;51.018;4.284;2024-01-11T08:42:11;45.00;;;17.07;;
18997;SDS011;9632;51.018;4.284;2024-01-11T08:44:40;43.73;;;17.00;;
18997;SDS011;9632;51.018;4.284;2024-01-11T08:47:09;45.40;;;16.93;;
18997;SDS011;9632;51.018;4.284;2024-01-11T08:49:38;48.10;;;18.10;;
18997;SDS011;9632;51.018;4.284;2024-01-11T08:52:04;44.37;;;17.13;;
18997;SDS011;9632;51.018;4.284;2024-01-11T08:54:31;48.73;;;19.03;;
18997;SDS011;9632;51.018;4.284;2024-01-11T08:57:00;52.40;;;17.33;;
18997;SDS011;9632;51.018;4.284;2024-01-11T08:59:26;46.87;;;17.00;;
18997;SDS011;9632;51.018;4.284;2024-01-11T09:01:52;44.87;;;18.10;;
18997;SDS011;9632;51.018;4.284;2024-01-11T09:04:17;52.47;;;17.90;;
18997;SDS011;9632;51.018;4.284;2024-01-11T09:06:43;42.80;;;17.70;;
18997;SDS011;9632;51.018;4.284;2024-01-11T09:09:10;45.33;;;17.50;;
18997;SDS011;9632;51.018;4.284;2024-01-11T09:11:38;48.10;;;17.87;;
18997;SDS011;9632;51.018;4.284;2024-01-11T09:14:05;47.33;;;17.20;;
18997;SDS011;9632;51.018;4.284;2024-01-11T09:16:31;43.40;;;17.57;;
18997;SDS011;9632;51.018;4.284;2024-01-11T09:18:58;49.70;;;18.00;;
18997;SDS011;9632;51.018;4.284;2024-01-11T09:21:25;49.47;;;18.57;;
18997;SDS011;9632;51.018;4.284;2024-01-11T09:23:51;47.77;;;18.60;;
18997;SDS011;9632;51.018;4.284;2024-01-11T09:26:17;48.57;;;18.13;;
18997;SDS011;9632;51.018;4.284;2024-01-11T09:28:43;51.83;;;17.80;;
18997;SDS011;9632;51.018;4.284;2024-01-11T09:31:08;49.40;;;18.37;;
18997;SDS011;9632;51.018;4.284;2024-01-11T09:33:34;50.23;;;18.77;;
18997;SDS011;9632;51.018;4.284;2024-01-11T09:35:59;52.57;;;18.73;;
18997;SDS011;9632;51.018;4.284;2024-01-11T09:38:25;46.57;;;17.93;;
18997;SDS011;9632;51.018;4.284;2024-01-11T09:41:12;45.80;;;17.80;;
18997;SDS011;9632;51.018;4.284;2024-01-11T09:43:38;44.40;;;17.23;;
18997;SDS011;9632;51.018;4.284;2024-01-11T09:46:07;52.30;;;18.80;;
18997;SDS011;9632;51.018;4.284;2024-01-11T09:48:34;46.20;;;18.07;;
18997;SDS011;9632;51.018;4.284;2024-01-11T09:51:02;50.23;;;18.57;;
18997;SDS011;9632;51.018;4.284;2024-01-11T09:53:28;42.33;;;17.03;;
18997;SDS011;9632;51.018;4.284;2024-01-11T09:55:58;48.97;;;18.57;;
18997;SDS011;9632;51.018;4.284;2024-01-11T09:58:24;49.27;;;18.97;;
18997;SDS011;9632;51.018;4.284;2024-01-11T10:00:53;46.30;;;17.73;;
18997;SDS011;9632;51.018;4.284;2024-01-11T10:03:21;44.30;;;18.27;;
18997;SDS011;9632;51.018;4.284;2024-01-11T10:05:48;49.47;;;18.70;;
18997;SDS011;9632;51.018;4.284;2024-01-11T10:08:17;48.27;;;19.30;;
18997;SDS011;9632;51.018;4.284;2024-01-11T10:10:46;52.40;;;18.50;;
18997;SDS011;9632;51.018;4.284;2024-01-11T10:13:13;51.17;;;19.10;;
18997;SDS011;9632;51.018;4.284;2024-01-11T10:15:39;48.00;;;18.73;;
18997;SDS011;9632;51.018;4.284;2024-01-11T10:18:05;44.83;;;18.00;;
18997;SDS011;9632;51.018;4.284;2024-01-11T10:20:31;53.37;;;19.57;;
18997;SDS011;9632;51.018;4.284;2024-01-11T10:22:57;54.50;;;19.33;;
18997;SDS011;9632;51.018;4.284;2024-01-11T10:25:23;49.33;;;18.40;;
18997;SDS011;9632;51.018;4.284;2024-01-11T10:27:48;50.77;;;20.70;;
18997;SDS011;9632;51.018;4.284;2024-01-11T10:30:15;48.20;;;18.60;;
18997;SDS011;9632;51.018;4.284;2024-01-11T10:32:44;49.47;;;19.87;;
18997;SDS011;9632;51.018;4.284;2024-01-11T10:35:10;46.10;;;19.23;;
18997;SDS011;9632;51.018;4.284;2024-01-11T10:37:36;50.10;;;18.97;;
18997;SDS011;9632;51.018;4.284;2024-01-11T10:40:05;49.17;;;18.27;;
18997;SDS011;9632;51.018;4.284;2024-01-11T10:42:36;49.57;;;18.87;;
18997;SDS011;9632;51.018;4.284;2024-01-11T10:45:15;48.17;;;18.10;;
18997;SDS011;9632;51.018;4.284;2024-01-11T10:47:51;47.13;;;19.60;;
18997;SDS011;9632;51.018;4.284;2024-01-11T10:50:20;45.37;;;18.27;;
18997;SDS011;9632;51.018;4.284;2024-01-11T10:53:02;49.67;;;18.97;;
18997;SDS011;9632;51.018;4.284;2024-01-11T10:55:29;44.60;;;17.70;;
18997;SDS011;9632;51.018;4.284;2024-01-11T10:57:56;46.03;;;19.10;;
18997;SDS011;9632;51.018;4.284;2024-01-11T11:00:24;52.87;;;19.43;;
18997;SDS011;9632;51.018;4.284;2024-01-11T11:02:50;51.00;;;20.20;;
18997;SDS011;9632;51.018;4.284;2024-01-11T11:05:18;44.53;;;18.17;;
18997;SDS011;9632;51.018;4.284;2024-01-11T11:07:46;50.50;;;19.70;;
18997;SDS011;9632;51.018;4.284;2024-01-11T11:10:14;50.73;;;18.73;;
18997;SDS011;9632;51.018;4.284;2024-01-11T11:12:40;48.00;;;18.87;;
18997;SDS011;9632;51.018;4.284;2024-01-11T11:15:09;50.57;;;18.40;;
18997;SDS011;9632;51.018;4.284;2024-01-11T11:17:38;46.20;;;18.53;;
18997;SDS011;9632;51.018;4.284;2024-01-11T11:20:08;48.03;;;17.90;;
18997;SDS011;9632;51.018;4.284;2024-01-11T11:22:40;45.70;;;18.23;;
18997;SDS011;9632;51.018;4.284;2024-01-11T11:25:09;47.53;;;18.63;;
18997;SDS011;9632;51.018;4.284;2024-01-11T11:27:38;52.03;;;18.83;;
18997;SDS011;9632;51.018;4.284;2024-01-11T11:30:04;41.73;;;17.90;;
18997;SDS011;9632;51.018;4.284;2024-01-11T11:32:37;46.60;;;18.37;;
18997;SDS011;9632;51.018;4.284;2024-01-11T11:35:07;43.77;;;17.70;;
18997;SDS011;9632;51.018;4.284;2024-01-11T11:37:33;40.83;;;17.23;;
18997;SDS011;9632;51.018;4.284;2024-01-11T11:40:02;47.57;;;18.43;;
18997;SDS011;9632;51.018;4.284;2024-01-11T11:42:33;43.00;;;16.87;;
18997;SDS011;9632;51.018;4.284;2024-01-11T11:45:00;46.47;;;17.33;;
18997;SDS011;9632;51.018;4.284;2024-01-11T11:47:32;41.03;;;17.13;;
18997;SDS011;9632;51.018;4.284;2024-01-11T11:52:33;40.80;;;16.87;;
18997;SDS011;9632;51.018;4.284;2024-01-11T11:55:02;40.90;;;17.10;;
18997;SDS011;9632;51.018;4.284;2024-01-11T11:57:28;42.77;;;15.73;;
18997;SDS011;9632;51.018;4.284;2024-01-11T11:59:55;40.97;;;16.77;;
18997;SDS011;9632;51.018;4.284;2024-01-11T12:02:23;41.73;;;16.30;;
18997;SDS011;9632;51.018;4.284;2024-01-11T12:04:50;37.93;;;15.80;;
18997;SDS011;9632;51.018;4.284;2024-01-11T12:07:16;43.10;;;16.10;;
18997;SDS011;9632;51.018;4.284;2024-01-11T12:09:42;42.20;;;15.93;;
18997;SDS011;9632;51.018;4.284;2024-01-11T12:12:08;39.77;;;15.60;;
18997;SDS011;9632;51.018;4.284;2024-01-11T12:14:34;44.73;;;16.33;;
18997;SDS011;9632;51.018;4.284;2024-01-11T12:17:00;37.27;;;15.47;;
18997;SDS011;9632;51.018;4.284;2024-01-11T12:19:27;43.07;;;15.57;;
18997;SDS011;9632;51.018;4.284;2024-01-11T12:21:54;40.93;;;15.20;;
18997;SDS011;9632;51.018;4.284;2024-01-11T12:24:20;41.77;;;15.33;;
18997;SDS011;9632;51.018;4.284;2024-01-11T12:26:48;38.37;;;15.07;;
18997;SDS011;9632;51.018;4.284;2024-01-11T12:29:17;43.53;;;16.23;;
18997;SDS011;9632;51.018;4.284;2024-01-11T12:31:43;37.53;;;15.53;;
18997;SDS011;9632;51.018;4.284;2024-01-11T12:34:09;36.37;;;15.23;;
18997;SDS011;9632;51.018;4.284;2024-01-11T12:36:37;47.50;;;14.80;;
18997;SDS011;9632;51.018;4.284;2024-01-11T12:39:03;37.27;;;15.40;;
18997;SDS011;9632;51.018;4.284;2024-01-11T12:41:31;35.23;;;14.83;;
18997;SDS011;9632;51.018;4.284;2024-01-11T12:43:57;41.33;;;15.87;;
18997;SDS011;9632;51.018;4.284;2024-01-11T12:46:23;37.30;;;15.47;;
18997;SDS011;9632;51.018;4.284;2024-01-11T12:48:49;39.53;;;15.70;;
18997;SDS011;9632;51.018;4.284;2024-01-11T12:51:18;36.20;;;15.93;;
18997;SDS011;9632;51.018;4.284;2024-01-11T12:53:45;36.37;;;15.50;;
18997;SDS011;9632;51.018;4.284;2024-01-11T12:56:12;36.17;;;14.80;;
18997;SDS011;9632;51.018;4.284;2024-01-11T12:58:40;41.03;;;15.40;;
18997;SDS011;9632;51.018;4.284;2024-01-11T13:01:06;43.07;;;15.37;;
18997;SDS011;9632;51.018;4.284;2024-01-11T13:03:35;39.63;;;16.00;;
18997;SDS011;9632;51.018;4.284;2024-01-11T13:06:03;43.83;;;15.43;;
18997;SDS011;9632;51.018;4.284;2024-01-11T13:08:32;44.73;;;15.60;;
18997;SDS011;9632;51.018;4.284;2024-01-11T13:10:59;37.67;;;15.60;;
18997;SDS011;9632;51.018;4.284;2024-01-11T13:13:26;32.90;;;14.93;;
18997;SDS011;9632;51.018;4.284;2024-01-11T13:15:53;36.63;;;14.97;;
18997;SDS011;9632;51.018;4.284;2024-01-11T13:18:18;38.20;;;16.07;;
18997;SDS011;9632;51.018;4.284;2024-01-11T13:20:44;38.60;;;16.10;;
18997;SDS011;9632;51.018;4.284;2024-01-11T13:23:17;35.80;;;14.97;;
18997;SDS011;9632;51.018;4.284;2024-01-11T13:25:47;38.37;;;14.90;;
18997;SDS011;9632;51.018;4.284;2024-01-11T13:28:17;40.23;;;14.63;;
18997;SDS011;9632;51.018;4.284;2024-01-11T13:30:44;33.37;;;13.97;;
18997;SDS011;9632;51.018;4.284;2024-01-11T13:33:11;32.70;;;14.10;;
18997;SDS011;9632;51.018;4.284;2024-01-11T13:35:37;37.87;;;14.17;;
18997;SDS011;9632;51.018;4.284;2024-01-11T13:38:04;32.50;;;14.00;;
18997;SDS011;9632;51.018;4.284;2024-01-11T13:40:30;34.90;;;13.53;;
18997;SDS011;9632;51.018;4.284;2024-01-11T13:42:57;32.87;;;14.67;;
18997;SDS011;9632;51.018;4.284;2024-01-11T13:45:23;32.97;;;13.27;;
18997;SDS011;9632;51.018;4.284;2024-01-11T13:47:50;33.07;;;14.13;;
18997;SDS011;9632;51.018;4.284;2024-01-11T13:50:16;37.37;;;14.53;;
18997;SDS011;9632;51.018;4.284;2024-01-11T13:52:43;37.10;;;15.27;;
18997;SDS011;9632;51.018;4.284;2024-01-11T13:55:09;38.07;;;14.23;;
18997;SDS011;9632;51.018;4.284;2024-01-11T13:57:36;38.00;;;15.53;;
18997;SDS011;9632;51.018;4.284;2024-01-11T14:00:03;35.90;;;14.97;;
18997;SDS011;9632;51.018;4.284;2024-01-11T14:02:30;37.03;;;14.30;;
18997;SDS011;9632;51.018;4.284;2024-01-11T14:04:56;34.50;;;14.10;;
18997;SDS011;9632;51.018;4.284;2024-01-11T14:07:21;34.37;;;14.10;;
18997;SDS011;9632;51.018;4.284;2024-01-11T14:09:47;42.43;;;16.03;;
18997;SDS011;9632;51.018;4.284;2024-01-11T14:12:13;35.70;;;14.03;;
18997;SDS011;9632;51.018;4.284;2024-01-11T14:14:40;35.77;;;15.33;;
18997;SDS011;9632;51.018;4.284;2024-01-11T14:17:06;42.70;;;14.90;;
18997;SDS011;9632;51.018;4.284;2024-01-11T14:19:33;33.50;;;13.87;;
18997;SDS011;9632;51.018;4.284;2024-01-11T14:21:58;33.57;;;14.27;;
18997;SDS011;9632;51.018;4.284;2024-01-11T14:24:24;37.83;;;14.37;;
18997;SDS011;9632;51.018;4.284;2024-01-11T14:26:50;33.70;;;13.80;;
18997;SDS011;9632;51.018;4.284;2024-01-11T14:29:16;29.70;;;13.63;;
18997;SDS011;9632;51.018;4.284;2024-01-11T14:31:42;37.00;;;14.03;;